sensor_id;sensor_type;location;lat;lon;timestamp;temperature;humidity
59847;DHT22;45728;48.788;2.302;2023-04-24T00:01:18;8.60;99.90
59847;DHT22;45728;48.788;2.302;2023-04-24T00:03:45;8.50;99.90
59847;DHT22;45728;48.788;2.302;2023-04-24T00:06:11;8.60;99.90
59847;DHT22;45728;48.788;2.302;2023-04-24T00:08:37;8.60;99.90
59847;DHT22;45728;48.788;2.302;2023-04-24T00:11:03;8.50;99.90
59847;DHT22;45728;48.788;2.302;2023-04-24T00:13:29;8.60;99.90
59847;DHT22;45728;48.788;2.302;2023-04-24T00:15:56;8.60;99.90
59847;DHT22;45728;48.788;2.302;2023-04-24T00:18:22;8.50;99.90
59847;DHT22;45728;48.788;2.302;2023-04-24T00:20:48;8.60;99.90
59847;DHT22;45728;48.788;2.302;2023-04-24T00:23:14;8.50;99.90
59847;DHT22;45728;48.788;2.302;2023-04-24T00:25:40;8.50;99.90
59847;DHT22;45728;48.788;2.302;2023-04-24T00:28:06;8.40;99.90
59847;DHT22;45728;48.788;2.302;2023-04-24T00:30:32;8.50;99.90
59847;DHT22;45728;48.788;2.302;2023-04-24T00:32:58;8.50;99.90
59847;DHT22;45728;48.788;2.302;2023-04-24T00:35:24;8.50;99.90
59847;DHT22;45728;48.788;2.302;2023-04-24T00:37:50;8.50;99.90
59847;DHT22;45728;48.788;2.302;2023-04-24T00:40:16;8.50;99.90
59847;DHT22;45728;48.788;2.302;2023-04-24T00:42:43;8.50;99.90
59847;DHT22;45728;48.788;2.302;2023-04-24T00:45:09;8.40;99.90
59847;DHT22;45728;48.788;2.302;2023-04-24T00:47:36;8.50;99.90
59847;DHT22;45728;48.788;2.302;2023-04-24T00:50:03;8.50;99.90
59847;DHT22;45728;48.788;2.302;2023-04-24T00:52:30;8.50;99.90
59847;DHT22;45728;48.788;2.302;2023-04-24T00:54:58;8.40;99.90
59847;DHT22;45728;48.788;2.302;2023-04-24T00:57:25;8.40;99.90
59847;DHT22;45728;48.788;2.302;2023-04-24T00:59:52;8.40;99.90
59847;DHT22;45728;48.788;2.302;2023-04-24T01:02:19;8.40;99.90
59847;DHT22;45728;48.788;2.302;2023-04-24T01:04:46;8.30;99.90
59847;DHT22;45728;48.788;2.302;2023-04-24T01:07:12;8.30;99.90
59847;DHT22;45728;48.788;2.302;2023-04-24T01:09:40;8.40;99.90
59847;DHT22;45728;48.788;2.302;2023-04-24T01:12:09;8.40;99.90
59847;DHT22;45728;48.788;2.302;2023-04-24T01:14:36;8.50;99.90
59847;DHT22;45728;48.788;2.302;2023-04-24T01:17:02;8.40;99.90
59847;DHT22;45728;48.788;2.302;2023-04-24T01:19:28;8.40;99.90
59847;DHT22;45728;48.788;2.302;2023-04-24T01:21:58;8.50;99.90
59847;DHT22;45728;48.788;2.302;2023-04-24T01:24:24;8.50;99.90
59847;DHT22;45728;48.788;2.302;2023-04-24T01:26:50;8.50;99.90
59847;DHT22;45728;48.788;2.302;2023-04-24T01:29:16;8.60;99.90
59847;DHT22;45728;48.788;2.302;2023-04-24T01:31:43;8.60;99.90
59847;DHT22;45728;48.788;2.302;2023-04-24T01:34:09;8.60;99.90
59847;DHT22;45728;48.788;2.302;2023-04-24T01:36:35;8.60;99.90
59847;DHT22;45728;48.788;2.302;2023-04-24T01:39:02;8.60;99.90
59847;DHT22;45728;48.788;2.302;2023-04-24T01:41:30;8.60;99.90
59847;DHT22;45728;48.788;2.302;2023-04-24T01:43:57;8.70;99.90
59847;DHT22;45728;48.788;2.302;2023-04-24T01:46:24;8.70;99.90
59847;DHT22;45728;48.788;2.302;2023-04-24T01:48:51;8.70;99.90
59847;DHT22;45728;48.788;2.302;2023-04-24T01:51:17;8.70;99.90
59847;DHT22;45728;48.788;2.302;2023-04-24T01:53:43;8.70;99.90
59847;DHT22;45728;48.788;2.302;2023-04-24T01:56:10;8.70;99.90
59847;DHT22;45728;48.788;2.302;2023-04-24T01:58:36;8.70;99.90
59847;DHT22;45728;48.788;2.302;2023-04-24T02:01:02;8.80;99.90
59847;DHT22;45728;48.788;2.302;2023-04-24T02:03:28;8.80;99.90
59847;DHT22;45728;48.788;2.302;2023-04-24T02:05:54;8.80;99.90
59847;DHT22;45728;48.788;2.302;2023-04-24T02:08:20;8.80;99.90
59847;DHT22;45728;48.788;2.302;2023-04-24T02:10:46;8.80;99.90
59847;DHT22;45728;48.788;2.302;2023-04-24T02:13:12;8.80;99.90
59847;DHT22;45728;48.788;2.302;2023-04-24T02:15:38;8.80;99.90
59847;DHT22;45728;48.788;2.302;2023-04-24T02:18:04;8.80;99.90
59847;DHT22;45728;48.788;2.302;2023-04-24T02:20:32;8.80;99.90
59847;DHT22;45728;48.788;2.302;2023-04-24T02:22:59;8.80;99.90
59847;DHT22;45728;48.788;2.302;2023-04-24T02:25:25;8.80;99.90
59847;DHT22;45728;48.788;2.302;2023-04-24T02:27:51;8.80;99.90
59847;DHT22;45728;48.788;2.302;2023-04-24T02:30:17;8.90;99.90
59847;DHT22;45728;48.788;2.302;2023-04-24T02:32:43;8.90;99.90
59847;DHT22;45728;48.788;2.302;2023-04-24T02:35:10;8.90;99.90
59847;DHT22;45728;48.788;2.302;2023-04-24T02:37:36;8.90;99.90
59847;DHT22;45728;48.788;2.302;2023-04-24T02:40:02;8.90;99.90
59847;DHT22;45728;48.788;2.302;2023-04-24T02:42:28;8.90;99.90
59847;DHT22;45728;48.788;2.302;2023-04-24T02:44:54;8.90;99.90
59847;DHT22;45728;48.788;2.302;2023-04-24T02:47:20;8.90;99.90
59847;DHT22;45728;48.788;2.302;2023-04-24T02:49:46;8.90;99.90
59847;DHT22;45728;48.788;2.302;2023-04-24T02:52:12;8.90;99.90
59847;DHT22;45728;48.788;2.302;2023-04-24T02:54:40;8.90;99.90
59847;DHT22;45728;48.788;2.302;2023-04-24T02:57:06;8.80;99.90
59847;DHT22;45728;48.788;2.302;2023-04-24T02:59:32;8.80;99.90
59847;DHT22;45728;48.788;2.302;2023-04-24T03:01:59;8.90;99.90
59847;DHT22;45728;48.788;2.302;2023-04-24T03:04:25;8.90;99.90
59847;DHT22;45728;48.788;2.302;2023-04-24T03:06:52;8.80;99.90
59847;DHT22;45728;48.788;2.302;2023-04-24T03:09:21;8.80;99.90
59847;DHT22;45728;48.788;2.302;2023-04-24T03:11:47;8.80;99.90
59847;DHT22;45728;48.788;2.302;2023-04-24T03:14:14;8.70;99.90
59847;DHT22;45728;48.788;2.302;2023-04-24T03:16:40;8.80;99.90
59847;DHT22;45728;48.788;2.302;2023-04-24T03:19:06;8.70;99.90
59847;DHT22;45728;48.788;2.302;2023-04-24T03:21:33;8.70;99.90
59847;DHT22;45728;48.788;2.302;2023-04-24T03:24:18;8.70;99.90
59847;DHT22;45728;48.788;2.302;2023-04-24T03:26:44;8.60;99.90
59847;DHT22;45728;48.788;2.302;2023-04-24T03:29:10;8.60;99.90
59847;DHT22;45728;48.788;2.302;2023-04-24T03:31:36;8.60;99.90
59847;DHT22;45728;48.788;2.302;2023-04-24T03:34:02;8.60;99.90
59847;DHT22;45728;48.788;2.302;2023-04-24T03:36:28;8.60;99.90
59847;DHT22;45728;48.788;2.302;2023-04-24T03:38:54;8.60;99.90
59847;DHT22;45728;48.788;2.302;2023-04-24T03:41:20;8.60;99.90
59847;DHT22;45728;48.788;2.302;2023-04-24T03:43:47;8.50;99.90
59847;DHT22;45728;48.788;2.302;2023-04-24T03:46:13;8.60;99.90
59847;DHT22;45728;48.788;2.302;2023-04-24T03:48:39;8.60;99.90
59847;DHT22;45728;48.788;2.302;2023-04-24T03:51:06;8.60;99.90
59847;DHT22;45728;48.788;2.302;2023-04-24T03:53:32;8.60;99.90
59847;DHT22;45728;48.788;2.302;2023-04-24T03:55:58;8.60;99.90
59847;DHT22;45728;48.788;2.302;2023-04-24T03:58:24;8.60;99.90
59847;DHT22;45728;48.788;2.302;2023-04-24T04:00:50;8.60;99.90
59847;DHT22;45728;48.788;2.302;2023-04-24T04:03:16;8.60;99.90
59847;DHT22;45728;48.788;2.302;2023-04-24T04:05:43;8.60;99.90
59847;DHT22;45728;48.788;2.302;2023-04-24T04:08:09;8.50;99.90
59847;DHT22;45728;48.788;2.302;2023-04-24T04:10:35;8.50;99.90
59847;DHT22;45728;48.788;2.302;2023-04-24T04:13:01;8.50;99.90
59847;DHT22;45728;48.788;2.302;2023-04-24T04:15:27;8.50;99.90
59847;DHT22;45728;48.788;2.302;2023-04-24T04:17:53;8.50;99.90
59847;DHT22;45728;48.788;2.302;2023-04-24T04:20:19;8.50;99.90
59847;DHT22;45728;48.788;2.302;2023-04-24T04:22:45;8.50;99.90
59847;DHT22;45728;48.788;2.302;2023-04-24T04:25:11;8.40;99.90
59847;DHT22;45728;48.788;2.302;2023-04-24T04:27:39;8.40;99.90
59847;DHT22;45728;48.788;2.302;2023-04-24T04:30:07;8.30;99.90
59847;DHT22;45728;48.788;2.302;2023-04-24T04:32:34;8.30;99.90
59847;DHT22;45728;48.788;2.302;2023-04-24T04:35:01;8.30;99.90
59847;DHT22;45728;48.788;2.302;2023-04-24T04:37:31;8.30;99.90
59847;DHT22;45728;48.788;2.302;2023-04-24T04:39:57;8.30;99.90
59847;DHT22;45728;48.788;2.302;2023-04-24T04:42:26;8.40;99.90
59847;DHT22;45728;48.788;2.302;2023-04-24T04:44:53;8.30;99.90
59847;DHT22;45728;48.788;2.302;2023-04-24T04:47:21;8.30;99.90
59847;DHT22;45728;48.788;2.302;2023-04-24T04:49:49;8.30;99.90
59847;DHT22;45728;48.788;2.302;2023-04-24T04:52:17;8.30;99.90
59847;DHT22;45728;48.788;2.302;2023-04-24T04:54:43;8.30;99.90
59847;DHT22;45728;48.788;2.302;2023-04-24T04:57:10;8.20;99.90
59847;DHT22;45728;48.788;2.302;2023-04-24T04:59:36;8.20;99.90
59847;DHT22;45728;48.788;2.302;2023-04-24T05:02:03;8.10;99.90
59847;DHT22;45728;48.788;2.302;2023-04-24T05:04:29;8.20;99.90
59847;DHT22;45728;48.788;2.302;2023-04-24T05:06:55;8.20;99.90
59847;DHT22;45728;48.788;2.302;2023-04-24T05:09:22;8.20;99.90
59847;DHT22;45728;48.788;2.302;2023-04-24T05:11:48;8.20;99.90
59847;DHT22;45728;48.788;2.302;2023-04-24T05:14:14;8.20;99.90
59847;DHT22;45728;48.788;2.302;2023-04-24T05:16:40;8.20;99.90
59847;DHT22;45728;48.788;2.302;2023-04-24T05:19:06;8.20;99.90
59847;DHT22;45728;48.788;2.302;2023-04-24T05:21:32;8.20;99.90
59847;DHT22;45728;48.788;2.302;2023-04-24T05:23:58;8.30;99.90
59847;DHT22;45728;48.788;2.302;2023-04-24T05:26:25;8.30;99.90
59847;DHT22;45728;48.788;2.302;2023-04-24T05:28:51;8.30;99.90
59847;DHT22;45728;48.788;2.302;2023-04-24T05:31:17;8.40;99.90
59847;DHT22;45728;48.788;2.302;2023-04-24T05:33:43;8.50;99.90
59847;DHT22;45728;48.788;2.302;2023-04-24T05:36:09;8.50;99.90
59847;DHT22;45728;48.788;2.302;2023-04-24T05:38:35;8.50;99.90
59847;DHT22;45728;48.788;2.302;2023-04-24T05:41:02;8.60;99.90
59847;DHT22;45728;48.788;2.302;2023-04-24T05:43:28;8.70;99.90
59847;DHT22;45728;48.788;2.302;2023-04-24T05:45:54;8.70;99.90
59847;DHT22;45728;48.788;2.302;2023-04-24T05:48:20;8.80;99.90
59847;DHT22;45728;48.788;2.302;2023-04-24T05:50:47;8.80;99.90
59847;DHT22;45728;48.788;2.302;2023-04-24T05:53:14;8.80;99.90
59847;DHT22;45728;48.788;2.302;2023-04-24T05:55:40;8.90;99.90
59847;DHT22;45728;48.788;2.302;2023-04-24T05:58:06;9.00;99.90
59847;DHT22;45728;48.788;2.302;2023-04-24T06:00:32;8.90;99.90
59847;DHT22;45728;48.788;2.302;2023-04-24T06:03:00;9.00;99.90
59847;DHT22;45728;48.788;2.302;2023-04-24T06:05:26;9.00;99.90
59847;DHT22;45728;48.788;2.302;2023-04-24T06:07:52;9.00;99.90
59847;DHT22;45728;48.788;2.302;2023-04-24T06:10:18;9.00;99.90
59847;DHT22;45728;48.788;2.302;2023-04-24T06:12:44;9.00;99.90
59847;DHT22;45728;48.788;2.302;2023-04-24T06:15:10;9.00;99.90
59847;DHT22;45728;48.788;2.302;2023-04-24T06:17:37;9.00;99.90
59847;DHT22;45728;48.788;2.302;2023-04-24T06:20:03;9.00;99.90
59847;DHT22;45728;48.788;2.302;2023-04-24T06:22:31;9.10;99.90
59847;DHT22;45728;48.788;2.302;2023-04-24T06:24:57;9.20;99.90
59847;DHT22;45728;48.788;2.302;2023-04-24T06:27:23;9.20;99.90
59847;DHT22;45728;48.788;2.302;2023-04-24T06:29:49;9.30;99.90
59847;DHT22;45728;48.788;2.302;2023-04-24T06:32:22;9.30;99.90
59847;DHT22;45728;48.788;2.302;2023-04-24T06:34:49;9.20;99.90
59847;DHT22;45728;48.788;2.302;2023-04-24T06:37:15;9.30;99.90
59847;DHT22;45728;48.788;2.302;2023-04-24T06:39:42;9.30;99.90
59847;DHT22;45728;48.788;2.302;2023-04-24T06:42:08;9.30;99.90
59847;DHT22;45728;48.788;2.302;2023-04-24T06:44:35;9.40;99.90
59847;DHT22;45728;48.788;2.302;2023-04-24T06:47:10;9.30;99.90
59847;DHT22;45728;48.788;2.302;2023-04-24T06:49:40;9.50;99.90
59847;DHT22;45728;48.788;2.302;2023-04-24T06:52:06;9.60;99.90
59847;DHT22;45728;48.788;2.302;2023-04-24T06:54:33;9.70;99.90
59847;DHT22;45728;48.788;2.302;2023-04-24T06:56:59;9.70;99.90
59847;DHT22;45728;48.788;2.302;2023-04-24T06:59:29;9.70;99.90
59847;DHT22;45728;48.788;2.302;2023-04-24T07:01:56;9.70;99.90
59847;DHT22;45728;48.788;2.302;2023-04-24T07:04:22;9.60;99.90
59847;DHT22;45728;48.788;2.302;2023-04-24T07:06:50;9.70;99.90
59847;DHT22;45728;48.788;2.302;2023-04-24T07:09:17;9.70;99.90
59847;DHT22;45728;48.788;2.302;2023-04-24T07:11:45;9.70;99.90
59847;DHT22;45728;48.788;2.302;2023-04-24T07:14:11;9.80;99.90
59847;DHT22;45728;48.788;2.302;2023-04-24T07:16:38;9.80;99.90
59847;DHT22;45728;48.788;2.302;2023-04-24T07:19:04;9.80;99.90
59847;DHT22;45728;48.788;2.302;2023-04-24T07:21:31;9.80;99.90
59847;DHT22;45728;48.788;2.302;2023-04-24T07:23:58;9.90;99.90
59847;DHT22;45728;48.788;2.302;2023-04-24T07:26:25;9.90;99.90
59847;DHT22;45728;48.788;2.302;2023-04-24T07:28:51;10.00;99.90
59847;DHT22;45728;48.788;2.302;2023-04-24T07:31:17;10.00;99.90
59847;DHT22;45728;48.788;2.302;2023-04-24T07:33:43;10.10;99.90
59847;DHT22;45728;48.788;2.302;2023-04-24T07:36:11;10.10;99.90
59847;DHT22;45728;48.788;2.302;2023-04-24T07:38:42;10.10;99.90
59847;DHT22;45728;48.788;2.302;2023-04-24T07:41:08;10.10;99.90
59847;DHT22;45728;48.788;2.302;2023-04-24T07:43:35;10.10;99.90
59847;DHT22;45728;48.788;2.302;2023-04-24T07:46:01;10.10;99.90
59847;DHT22;45728;48.788;2.302;2023-04-24T07:48:27;10.00;99.90
59847;DHT22;45728;48.788;2.302;2023-04-24T07:50:53;10.10;99.90
59847;DHT22;45728;48.788;2.302;2023-04-24T07:53:20;10.10;99.90
59847;DHT22;45728;48.788;2.302;2023-04-24T07:55:46;10.10;99.90
59847;DHT22;45728;48.788;2.302;2023-04-24T07:58:12;10.20;99.90
59847;DHT22;45728;48.788;2.302;2023-04-24T08:00:38;10.20;99.90
59847;DHT22;45728;48.788;2.302;2023-04-24T08:03:04;10.00;99.90
59847;DHT22;45728;48.788;2.302;2023-04-24T08:05:30;9.90;99.90
59847;DHT22;45728;48.788;2.302;2023-04-24T08:07:56;9.90;99.90
59847;DHT22;45728;48.788;2.302;2023-04-24T08:10:23;9.90;99.90
59847;DHT22;45728;48.788;2.302;2023-04-24T08:12:49;9.90;99.90
59847;DHT22;45728;48.788;2.302;2023-04-24T08:15:15;10.00;99.90
59847;DHT22;45728;48.788;2.302;2023-04-24T08:17:41;10.20;99.90
59847;DHT22;45728;48.788;2.302;2023-04-24T08:20:09;10.50;99.90
59847;DHT22;45728;48.788;2.302;2023-04-24T08:22:42;10.60;99.90
59847;DHT22;45728;48.788;2.302;2023-04-24T08:25:10;10.70;99.90
59847;DHT22;45728;48.788;2.302;2023-04-24T08:27:36;10.80;99.90
59847;DHT22;45728;48.788;2.302;2023-04-24T08:30:03;11.00;99.90
59847;DHT22;45728;48.788;2.302;2023-04-24T08:32:30;11.10;99.90
59847;DHT22;45728;48.788;2.302;2023-04-24T08:34:56;11.10;99.90
59847;DHT22;45728;48.788;2.302;2023-04-24T08:37:23;11.20;99.90
59847;DHT22;45728;48.788;2.302;2023-04-24T08:39:50;11.10;99.90
59847;DHT22;45728;48.788;2.302;2023-04-24T08:42:18;11.10;99.90
59847;DHT22;45728;48.788;2.302;2023-04-24T08:44:44;11.10;99.90
59847;DHT22;45728;48.788;2.302;2023-04-24T08:47:11;11.30;99.90
59847;DHT22;45728;48.788;2.302;2023-04-24T08:49:38;11.30;99.90
59847;DHT22;45728;48.788;2.302;2023-04-24T08:52:05;11.20;99.90
59847;DHT22;45728;48.788;2.302;2023-04-24T08:54:33;11.40;99.90
59847;DHT22;45728;48.788;2.302;2023-04-24T08:57:01;11.50;99.90
59847;DHT22;45728;48.788;2.302;2023-04-24T08:59:30;11.60;99.90
59847;DHT22;45728;48.788;2.302;2023-04-24T09:01:57;11.70;99.90
59847;DHT22;45728;48.788;2.302;2023-04-24T09:04:24;11.80;99.90
59847;DHT22;45728;48.788;2.302;2023-04-24T09:06:55;11.90;99.90
59847;DHT22;45728;48.788;2.302;2023-04-24T09:09:22;11.90;99.90
59847;DHT22;45728;48.788;2.302;2023-04-24T09:11:50;11.70;99.90
59847;DHT22;45728;48.788;2.302;2023-04-24T09:14:17;11.70;99.90
59847;DHT22;45728;48.788;2.302;2023-04-24T09:16:43;11.50;99.90
59847;DHT22;45728;48.788;2.302;2023-04-24T09:19:09;11.60;99.90
59847;DHT22;45728;48.788;2.302;2023-04-24T09:21:36;11.70;99.90
59847;DHT22;45728;48.788;2.302;2023-04-24T09:24:04;11.60;99.90
59847;DHT22;45728;48.788;2.302;2023-04-24T09:26:31;11.50;99.90
59847;DHT22;45728;48.788;2.302;2023-04-24T09:28:59;11.50;99.90
59847;DHT22;45728;48.788;2.302;2023-04-24T09:31:27;11.50;99.90
59847;DHT22;45728;48.788;2.302;2023-04-24T09:36:31;11.90;99.90
59847;DHT22;45728;48.788;2.302;2023-04-24T09:39:04;12.00;99.90
59847;DHT22;45728;48.788;2.302;2023-04-24T09:41:32;12.00;99.90
59847;DHT22;45728;48.788;2.302;2023-04-24T09:44:12;12.10;99.90
59847;DHT22;45728;48.788;2.302;2023-04-24T09:46:39;12.20;99.90
59847;DHT22;45728;48.788;2.302;2023-04-24T09:49:15;12.20;99.90
59847;DHT22;45728;48.788;2.302;2023-04-24T09:51:42;12.30;99.90
59847;DHT22;45728;48.788;2.302;2023-04-24T09:54:17;12.30;99.90
59847;DHT22;45728;48.788;2.302;2023-04-24T09:56:45;12.40;99.90
59847;DHT22;45728;48.788;2.302;2023-04-24T09:59:13;12.40;99.90
59847;DHT22;45728;48.788;2.302;2023-04-24T10:01:39;12.40;99.90
59847;DHT22;45728;48.788;2.302;2023-04-24T10:04:22;12.40;99.90
59847;DHT22;45728;48.788;2.302;2023-04-24T10:06:50;12.40;99.90
59847;DHT22;45728;48.788;2.302;2023-04-24T10:09:18;12.50;99.90
59847;DHT22;45728;48.788;2.302;2023-04-24T10:11:46;12.70;99.90
59847;DHT22;45728;48.788;2.302;2023-04-24T10:14:20;12.80;99.90
59847;DHT22;45728;48.788;2.302;2023-04-24T10:16:47;12.80;99.90
59847;DHT22;45728;48.788;2.302;2023-04-24T10:19:14;12.90;99.90
59847;DHT22;45728;48.788;2.302;2023-04-24T10:21:43;12.80;99.90
59847;DHT22;45728;48.788;2.302;2023-04-24T10:24:13;12.80;99.90
59847;DHT22;45728;48.788;2.302;2023-04-24T10:26:40;12.90;99.90
59847;DHT22;45728;48.788;2.302;2023-04-24T10:29:07;12.90;99.90
59847;DHT22;45728;48.788;2.302;2023-04-24T10:31:38;13.00;99.90
59847;DHT22;45728;48.788;2.302;2023-04-24T10:34:05;13.20;99.90
59847;DHT22;45728;48.788;2.302;2023-04-24T10:36:33;13.30;99.90
59847;DHT22;45728;48.788;2.302;2023-04-24T10:39:02;13.10;99.90
59847;DHT22;45728;48.788;2.302;2023-04-24T10:41:30;13.30;99.90
59847;DHT22;45728;48.788;2.302;2023-04-24T10:44:09;13.10;99.90
59847;DHT22;45728;48.788;2.302;2023-04-24T10:46:36;13.10;99.90
59847;DHT22;45728;48.788;2.302;2023-04-24T10:49:06;13.10;99.90
59847;DHT22;45728;48.788;2.302;2023-04-24T10:51:49;13.30;99.90
59847;DHT22;45728;48.788;2.302;2023-04-24T10:54:45;13.40;99.90
59847;DHT22;45728;48.788;2.302;2023-04-24T10:59:49;13.40;99.90
59847;DHT22;45728;48.788;2.302;2023-04-24T11:02:15;13.60;99.90
59847;DHT22;45728;48.788;2.302;2023-04-24T11:04:42;13.70;99.90
59847;DHT22;45728;48.788;2.302;2023-04-24T11:07:09;14.10;99.90
59847;DHT22;45728;48.788;2.302;2023-04-24T11:09:36;14.20;99.90
59847;DHT22;45728;48.788;2.302;2023-04-24T11:12:07;14.00;99.90
59847;DHT22;45728;48.788;2.302;2023-04-24T11:17:33;13.80;99.90
59847;DHT22;45728;48.788;2.302;2023-04-24T11:20:07;13.60;99.90
59847;DHT22;45728;48.788;2.302;2023-04-24T11:22:35;13.70;99.90
59847;DHT22;45728;48.788;2.302;2023-04-24T11:25:03;13.50;99.90
59847;DHT22;45728;48.788;2.302;2023-04-24T11:27:31;13.40;99.90
59847;DHT22;45728;48.788;2.302;2023-04-24T11:32:38;13.50;99.90
59847;DHT22;45728;48.788;2.302;2023-04-24T11:35:15;13.60;99.90
59847;DHT22;45728;48.788;2.302;2023-04-24T11:37:49;13.60;99.90
59847;DHT22;45728;48.788;2.302;2023-04-24T11:40:18;13.70;99.90
59847;DHT22;45728;48.788;2.302;2023-04-24T11:42:52;13.70;99.90
59847;DHT22;45728;48.788;2.302;2023-04-24T11:45:23;14.00;99.90
59847;DHT22;45728;48.788;2.302;2023-04-24T11:47:49;14.50;99.90
59847;DHT22;45728;48.788;2.302;2023-04-24T11:50:17;14.70;99.90
59847;DHT22;45728;48.788;2.302;2023-04-24T11:52:46;14.30;99.90
59847;DHT22;45728;48.788;2.302;2023-04-24T11:57:46;14.30;99.90
59847;DHT22;45728;48.788;2.302;2023-04-24T12:00:45;14.30;99.90
59847;DHT22;45728;48.788;2.302;2023-04-24T12:03:12;14.20;99.90
59847;DHT22;45728;48.788;2.302;2023-04-24T12:05:39;14.20;99.90
59847;DHT22;45728;48.788;2.302;2023-04-24T12:08:05;14.10;99.90
59847;DHT22;45728;48.788;2.302;2023-04-24T12:10:33;14.10;99.90
59847;DHT22;45728;48.788;2.302;2023-04-24T12:13:00;13.90;99.90
59847;DHT22;45728;48.788;2.302;2023-04-24T12:15:27;13.90;99.90
59847;DHT22;45728;48.788;2.302;2023-04-24T12:17:54;13.90;99.90
59847;DHT22;45728;48.788;2.302;2023-04-24T12:20:40;14.10;99.90
59847;DHT22;45728;48.788;2.302;2023-04-24T12:23:06;14.60;99.90
59847;DHT22;45728;48.788;2.302;2023-04-24T12:25:33;14.70;99.90
59847;DHT22;45728;48.788;2.302;2023-04-24T12:32:59;14.80;99.90
59847;DHT22;45728;48.788;2.302;2023-04-24T12:35:28;14.60;99.90
59847;DHT22;45728;48.788;2.302;2023-04-24T12:37:55;14.40;99.90
59847;DHT22;45728;48.788;2.302;2023-04-24T12:40:21;14.10;99.90
59847;DHT22;45728;48.788;2.302;2023-04-24T12:42:51;14.00;99.90
59847;DHT22;45728;48.788;2.302;2023-04-24T12:45:18;14.00;99.90
59847;DHT22;45728;48.788;2.302;2023-04-24T12:47:45;13.80;99.90
59847;DHT22;45728;48.788;2.302;2023-04-24T12:50:15;13.80;99.90
59847;DHT22;45728;48.788;2.302;2023-04-24T12:52:42;13.80;99.90
59847;DHT22;45728;48.788;2.302;2023-04-24T12:55:09;13.90;99.90
59847;DHT22;45728;48.788;2.302;2023-04-24T12:57:36;14.00;99.90
59847;DHT22;45728;48.788;2.302;2023-04-24T13:00:03;14.00;99.90
59847;DHT22;45728;48.788;2.302;2023-04-24T13:02:30;14.40;99.90
59847;DHT22;45728;48.788;2.302;2023-04-24T13:04:58;14.70;99.90
59847;DHT22;45728;48.788;2.302;2023-04-24T13:07:24;14.90;99.90
59847;DHT22;45728;48.788;2.302;2023-04-24T13:09:52;14.90;99.90
59847;DHT22;45728;48.788;2.302;2023-04-24T13:12:18;15.20;99.90
59847;DHT22;45728;48.788;2.302;2023-04-24T13:14:45;14.90;99.90
59847;DHT22;45728;48.788;2.302;2023-04-24T13:17:12;14.90;99.90
59847;DHT22;45728;48.788;2.302;2023-04-24T13:19:41;14.70;99.90
59847;DHT22;45728;48.788;2.302;2023-04-24T13:22:09;14.50;99.90
59847;DHT22;45728;48.788;2.302;2023-04-24T13:24:36;14.50;99.90
59847;DHT22;45728;48.788;2.302;2023-04-24T13:27:03;14.50;99.90
59847;DHT22;45728;48.788;2.302;2023-04-24T13:29:29;14.60;99.90
59847;DHT22;45728;48.788;2.302;2023-04-24T13:31:56;14.40;99.90
59847;DHT22;45728;48.788;2.302;2023-04-24T13:34:25;14.30;99.90
59847;DHT22;45728;48.788;2.302;2023-04-24T13:36:52;14.30;99.90
59847;DHT22;45728;48.788;2.302;2023-04-24T13:39:18;14.40;99.90
59847;DHT22;45728;48.788;2.302;2023-04-24T13:41:45;14.50;99.90
59847;DHT22;45728;48.788;2.302;2023-04-24T13:44:12;14.60;99.90
59847;DHT22;45728;48.788;2.302;2023-04-24T13:46:39;14.60;99.90
59847;DHT22;45728;48.788;2.302;2023-04-24T13:49:05;14.50;99.90
59847;DHT22;45728;48.788;2.302;2023-04-24T13:51:31;14.40;99.90
59847;DHT22;45728;48.788;2.302;2023-04-24T13:53:58;14.30;99.90
59847;DHT22;45728;48.788;2.302;2023-04-24T13:56:24;14.20;99.90
59847;DHT22;45728;48.788;2.302;2023-04-24T13:58:50;14.20;99.90
59847;DHT22;45728;48.788;2.302;2023-04-24T14:01:16;14.10;99.90
59847;DHT22;45728;48.788;2.302;2023-04-24T14:03:42;14.00;99.90
59847;DHT22;45728;48.788;2.302;2023-04-24T14:06:30;14.10;99.90
59847;DHT22;45728;48.788;2.302;2023-04-24T14:08:57;13.90;99.90
59847;DHT22;45728;48.788;2.302;2023-04-24T14:11:23;13.90;99.90
59847;DHT22;45728;48.788;2.302;2023-04-24T14:13:49;14.00;99.90
59847;DHT22;45728;48.788;2.302;2023-04-24T14:16:16;13.90;99.90
59847;DHT22;45728;48.788;2.302;2023-04-24T14:18:42;13.70;99.90
59847;DHT22;45728;48.788;2.302;2023-04-24T14:21:08;13.90;99.90
59847;DHT22;45728;48.788;2.302;2023-04-24T14:23:34;14.00;99.90
59847;DHT22;45728;48.788;2.302;2023-04-24T14:26:00;13.90;99.90
59847;DHT22;45728;48.788;2.302;2023-04-24T14:28:26;14.00;99.90
59847;DHT22;45728;48.788;2.302;2023-04-24T14:30:52;13.90;99.90
59847;DHT22;45728;48.788;2.302;2023-04-24T14:33:18;13.90;99.90
59847;DHT22;45728;48.788;2.302;2023-04-24T14:35:46;14.20;99.90
59847;DHT22;45728;48.788;2.302;2023-04-24T14:38:12;14.30;99.90
59847;DHT22;45728;48.788;2.302;2023-04-24T14:40:38;14.50;99.90
59847;DHT22;45728;48.788;2.302;2023-04-24T14:43:04;14.50;99.90
59847;DHT22;45728;48.788;2.302;2023-04-24T14:45:30;15.00;99.90
59847;DHT22;45728;48.788;2.302;2023-04-24T14:47:57;15.30;99.90
59847;DHT22;45728;48.788;2.302;2023-04-24T14:50:23;15.20;99.90
59847;DHT22;45728;48.788;2.302;2023-04-24T14:52:54;15.30;99.90
59847;DHT22;45728;48.788;2.302;2023-04-24T14:55:24;15.30;99.90
59847;DHT22;45728;48.788;2.302;2023-04-24T14:57:50;15.00;99.90
59847;DHT22;45728;48.788;2.302;2023-04-24T15:00:17;14.70;99.90
59847;DHT22;45728;48.788;2.302;2023-04-24T15:02:43;14.40;99.90
59847;DHT22;45728;48.788;2.302;2023-04-24T15:05:10;14.30;99.90
59847;DHT22;45728;48.788;2.302;2023-04-24T15:07:38;14.30;99.90
59847;DHT22;45728;48.788;2.302;2023-04-24T15:10:04;14.30;99.90
59847;DHT22;45728;48.788;2.302;2023-04-24T15:12:31;14.20;99.90
59847;DHT22;45728;48.788;2.302;2023-04-24T15:14:58;14.40;99.90
59847;DHT22;45728;48.788;2.302;2023-04-24T15:17:24;14.40;99.90
59847;DHT22;45728;48.788;2.302;2023-04-24T15:19:50;14.40;99.90
59847;DHT22;45728;48.788;2.302;2023-04-24T15:22:16;14.00;99.90
59847;DHT22;45728;48.788;2.302;2023-04-24T15:24:42;13.80;99.90
59847;DHT22;45728;48.788;2.302;2023-04-24T15:27:09;12.90;99.90
59847;DHT22;45728;48.788;2.302;2023-04-24T15:29:36;12.80;99.90
59847;DHT22;45728;48.788;2.302;2023-04-24T15:32:02;13.00;99.90
59847;DHT22;45728;48.788;2.302;2023-04-24T15:34:28;13.00;99.90
59847;DHT22;45728;48.788;2.302;2023-04-24T15:36:54;13.20;99.90
59847;DHT22;45728;48.788;2.302;2023-04-24T15:39:22;13.50;99.90
59847;DHT22;45728;48.788;2.302;2023-04-24T15:41:50;13.70;99.90
59847;DHT22;45728;48.788;2.302;2023-04-24T15:44:16;13.80;99.90
59847;DHT22;45728;48.788;2.302;2023-04-24T15:46:44;14.00;99.90
59847;DHT22;45728;48.788;2.302;2023-04-24T15:49:28;14.30;99.90
59847;DHT22;45728;48.788;2.302;2023-04-24T15:51:55;14.20;99.90
59847;DHT22;45728;48.788;2.302;2023-04-24T15:54:21;14.20;99.90
59847;DHT22;45728;48.788;2.302;2023-04-24T15:56:49;14.20;99.90